sensor_id;sensor_type;location;lat;lon;timestamp;temperature;humidity
30304;DHT22;17112;48.636;10.152;2022-10-04T00:05:41;8.70;70.70
30304;DHT22;17112;48.636;10.152;2022-10-04T00:08:40;8.70;70.00
30304;DHT22;17112;48.636;10.152;2022-10-04T00:11:21;8.70;70.70
30304;DHT22;17112;48.636;10.152;2022-10-04T00:13:56;8.70;70.20
30304;DHT22;17112;48.636;10.152;2022-10-04T00:16:25;8.60;70.10
30304;DHT22;17112;48.636;10.152;2022-10-04T00:19:24;8.70;70.50
30304;DHT22;17112;48.636;10.152;2022-10-04T00:24:30;8.60;69.60
30304;DHT22;17112;48.636;10.152;2022-10-04T00:27:18;8.50;69.60
30304;DHT22;17112;48.636;10.152;2022-10-04T00:30:12;8.50;70.20
30304;DHT22;17112;48.636;10.152;2022-10-04T00:41:09;8.40;70.40
30304;DHT22;17112;48.636;10.152;2022-10-04T00:43:50;8.40;70.40
30304;DHT22;17112;48.636;10.152;2022-10-04T00:46:26;8.40;70.00
30304;DHT22;17112;48.636;10.152;2022-10-04T00:49:00;8.30;70.50
30304;DHT22;17112;48.636;10.152;2022-10-04T00:54:11;8.30;70.20
30304;DHT22;17112;48.636;10.152;2022-10-04T00:56:42;8.30;70.20
30304;DHT22;17112;48.636;10.152;2022-10-04T01:01:56;8.20;70.10
30304;DHT22;17112;48.636;10.152;2022-10-04T01:07:01;8.20;70.00
30304;DHT22;17112;48.636;10.152;2022-10-04T01:09:31;8.20;70.00
30304;DHT22;17112;48.636;10.152;2022-10-04T01:12:09;8.20;70.00
30304;DHT22;17112;48.636;10.152;2022-10-04T01:17:14;8.10;70.20
30304;DHT22;17112;48.636;10.152;2022-10-04T01:19:50;8.10;70.00
30304;DHT22;17112;48.636;10.152;2022-10-04T01:24:59;8.00;70.00
30304;DHT22;17112;48.636;10.152;2022-10-04T01:27:36;8.00;69.60
30304;DHT22;17112;48.636;10.152;2022-10-04T01:30:13;8.00;69.70
30304;DHT22;17112;48.636;10.152;2022-10-04T01:32:40;8.00;69.80
30304;DHT22;17112;48.636;10.152;2022-10-04T01:35:07;8.00;69.70
30304;DHT22;17112;48.636;10.152;2022-10-04T01:37:34;7.90;69.80
30304;DHT22;17112;48.636;10.152;2022-10-04T01:40:00;7.90;69.80
30304;DHT22;17112;48.636;10.152;2022-10-04T01:42:31;7.90;69.90
30304;DHT22;17112;48.636;10.152;2022-10-04T01:45:06;7.90;70.20
30304;DHT22;17112;48.636;10.152;2022-10-04T01:47:41;7.90;70.00
30304;DHT22;17112;48.636;10.152;2022-10-04T01:50:13;7.80;70.10
30304;DHT22;17112;48.636;10.152;2022-10-04T01:52:53;7.80;70.10
30304;DHT22;17112;48.636;10.152;2022-10-04T01:55:26;7.80;70.00
30304;DHT22;17112;48.636;10.152;2022-10-04T01:58:01;7.80;69.90
30304;DHT22;17112;48.636;10.152;2022-10-04T02:00:29;7.80;69.90
30304;DHT22;17112;48.636;10.152;2022-10-04T02:03:21;7.80;69.90
30304;DHT22;17112;48.636;10.152;2022-10-04T02:05:57;7.70;70.40
30304;DHT22;17112;48.636;10.152;2022-10-04T02:08:31;7.70;70.20
30304;DHT22;17112;48.636;10.152;2022-10-04T02:11:00;7.70;70.20
30304;DHT22;17112;48.636;10.152;2022-10-04T02:13:38;7.70;69.90
30304;DHT22;17112;48.636;10.152;2022-10-04T02:16:09;7.70;69.80
30304;DHT22;17112;48.636;10.152;2022-10-04T02:18:37;7.70;70.00
30304;DHT22;17112;48.636;10.152;2022-10-04T02:21:05;7.60;70.00
30304;DHT22;17112;48.636;10.152;2022-10-04T02:23:33;7.60;70.00
30304;DHT22;17112;48.636;10.152;2022-10-04T02:26:04;7.60;70.70
30304;DHT22;17112;48.636;10.152;2022-10-04T02:28:31;7.60;70.00
30304;DHT22;17112;48.636;10.152;2022-10-04T02:30:58;7.60;70.00
30304;DHT22;17112;48.636;10.152;2022-10-04T02:33:45;7.50;70.10
30304;DHT22;17112;48.636;10.152;2022-10-04T02:36:12;7.50;70.00
30304;DHT22;17112;48.636;10.152;2022-10-04T02:39:00;7.50;70.10
30304;DHT22;17112;48.636;10.152;2022-10-04T02:41:45;7.50;70.30
30304;DHT22;17112;48.636;10.152;2022-10-04T02:49:30;7.40;70.20
30304;DHT22;17112;48.636;10.152;2022-10-04T02:54:43;7.40;70.30
30304;DHT22;17112;48.636;10.152;2022-10-04T02:57:15;7.40;70.30
30304;DHT22;17112;48.636;10.152;2022-10-04T02:59:42;7.40;70.20
30304;DHT22;17112;48.636;10.152;2022-10-04T03:04:52;7.30;70.60
30304;DHT22;17112;48.636;10.152;2022-10-04T03:07:20;7.30;70.30
30304;DHT22;17112;48.636;10.152;2022-10-04T03:09:47;7.30;70.30
30304;DHT22;17112;48.636;10.152;2022-10-04T03:12:13;7.30;70.20
30304;DHT22;17112;48.636;10.152;2022-10-04T03:14:39;7.30;70.20
30304;DHT22;17112;48.636;10.152;2022-10-04T03:17:06;7.30;70.30
30304;DHT22;17112;48.636;10.152;2022-10-04T03:19:33;7.30;70.40
30304;DHT22;17112;48.636;10.152;2022-10-04T03:22:07;7.30;70.50
30304;DHT22;17112;48.636;10.152;2022-10-04T03:24:37;7.30;70.50
30304;DHT22;17112;48.636;10.152;2022-10-04T03:27:06;7.20;70.40
30304;DHT22;17112;48.636;10.152;2022-10-04T03:29:33;7.20;70.40
30304;DHT22;17112;48.636;10.152;2022-10-04T03:32:02;7.20;70.40
30304;DHT22;17112;48.636;10.152;2022-10-04T03:34:34;7.20;70.50
30304;DHT22;17112;48.636;10.152;2022-10-04T03:37:01;7.20;70.50
30304;DHT22;17112;48.636;10.152;2022-10-04T03:39:31;7.20;70.30
30304;DHT22;17112;48.636;10.152;2022-10-04T03:42:09;7.20;70.30
30304;DHT22;17112;48.636;10.152;2022-10-04T03:44:36;7.20;70.50
30304;DHT22;17112;48.636;10.152;2022-10-04T03:47:08;7.10;70.30
30304;DHT22;17112;48.636;10.152;2022-10-04T03:49:36;7.10;70.20
30304;DHT22;17112;48.636;10.152;2022-10-04T03:52:03;7.10;70.00
30304;DHT22;17112;48.636;10.152;2022-10-04T03:54:32;7.10;70.00
30304;DHT22;17112;48.636;10.152;2022-10-04T03:56:59;7.10;70.80
30304;DHT22;17112;48.636;10.152;2022-10-04T03:59:27;7.00;70.00
30304;DHT22;17112;48.636;10.152;2022-10-04T04:07:38;7.00;70.40
30304;DHT22;17112;48.636;10.152;2022-10-04T04:12:57;7.00;70.70
30304;DHT22;17112;48.636;10.152;2022-10-04T04:15:29;7.00;70.90
30304;DHT22;17112;48.636;10.152;2022-10-04T04:18:00;7.00;70.90
30304;DHT22;17112;48.636;10.152;2022-10-04T04:20:30;7.00;71.10
30304;DHT22;17112;48.636;10.152;2022-10-04T04:23:23;7.00;71.10
30304;DHT22;17112;48.636;10.152;2022-10-04T04:25:54;7.00;71.60
30304;DHT22;17112;48.636;10.152;2022-10-04T04:31:18;7.00;71.50
30304;DHT22;17112;48.636;10.152;2022-10-04T04:34:13;7.00;71.80
30304;DHT22;17112;48.636;10.152;2022-10-04T04:36:40;7.00;71.50
30304;DHT22;17112;48.636;10.152;2022-10-04T04:42:28;7.00;71.30
30304;DHT22;17112;48.636;10.152;2022-10-04T04:44:57;7.00;71.10
30304;DHT22;17112;48.636;10.152;2022-10-04T04:47:42;7.00;71.00
30304;DHT22;17112;48.636;10.152;2022-10-04T04:50:14;7.00;71.40
30304;DHT22;17112;48.636;10.152;2022-10-04T04:52:44;7.00;71.30
30304;DHT22;17112;48.636;10.152;2022-10-04T04:55:19;7.00;71.30
30304;DHT22;17112;48.636;10.152;2022-10-04T04:57:47;7.00;71.40
30304;DHT22;17112;48.636;10.152;2022-10-04T05:00:20;7.00;71.20
30304;DHT22;17112;48.636;10.152;2022-10-04T05:02:55;7.00;71.30
30304;DHT22;17112;48.636;10.152;2022-10-04T05:05:32;7.00;71.30
30304;DHT22;17112;48.636;10.152;2022-10-04T05:10:35;7.00;71.20
30304;DHT22;17112;48.636;10.152;2022-10-04T05:13:03;7.00;71.00
30304;DHT22;17112;48.636;10.152;2022-10-04T05:15:37;7.00;71.10
30304;DHT22;17112;48.636;10.152;2022-10-04T05:18:27;6.90;71.40
30304;DHT22;17112;48.636;10.152;2022-10-04T05:20:54;6.90;71.70
30304;DHT22;17112;48.636;10.152;2022-10-04T05:23:21;6.90;71.20
30304;DHT22;17112;48.636;10.152;2022-10-04T05:25:49;6.90;71.20
30304;DHT22;17112;48.636;10.152;2022-10-04T05:28:15;6.90;71.40
30304;DHT22;17112;48.636;10.152;2022-10-04T05:30:46;6.90;71.40
30304;DHT22;17112;48.636;10.152;2022-10-04T05:33:25;6.90;71.60
30304;DHT22;17112;48.636;10.152;2022-10-04T05:36:01;6.90;71.80
30304;DHT22;17112;48.636;10.152;2022-10-04T05:38:53;7.00;71.70
30304;DHT22;17112;48.636;10.152;2022-10-04T05:46:44;7.00;71.60
30304;DHT22;17112;48.636;10.152;2022-10-04T05:49:12;7.00;71.50
30304;DHT22;17112;48.636;10.152;2022-10-04T05:52:05;7.00;71.60
30304;DHT22;17112;48.636;10.152;2022-10-04T05:54:37;7.10;72.00
30304;DHT22;17112;48.636;10.152;2022-10-04T05:57:37;7.10;71.60
30304;DHT22;17112;48.636;10.152;2022-10-04T06:00:16;7.10;72.00
30304;DHT22;17112;48.636;10.152;2022-10-04T06:03:12;7.10;71.80
30304;DHT22;17112;48.636;10.152;2022-10-04T06:05:59;7.20;72.20
30304;DHT22;17112;48.636;10.152;2022-10-04T06:17:26;7.30;72.10
30304;DHT22;17112;48.636;10.152;2022-10-04T06:22:58;7.50;72.00
30304;DHT22;17112;48.636;10.152;2022-10-04T06:25:37;7.50;71.80
30304;DHT22;17112;48.636;10.152;2022-10-04T06:28:20;7.60;72.00
30304;DHT22;17112;48.636;10.152;2022-10-04T06:36:03;7.70;71.90
30304;DHT22;17112;48.636;10.152;2022-10-04T06:44:29;7.90;72.20
30304;DHT22;17112;48.636;10.152;2022-10-04T06:47:22;7.90;72.00
30304;DHT22;17112;48.636;10.152;2022-10-04T07:00:58;8.30;72.30
30304;DHT22;17112;48.636;10.152;2022-10-04T07:03:42;8.30;72.30
30304;DHT22;17112;48.636;10.152;2022-10-04T07:06:10;8.40;72.30
30304;DHT22;17112;48.636;10.152;2022-10-04T07:08:49;8.50;72.00
30304;DHT22;17112;48.636;10.152;2022-10-04T07:14:27;8.70;72.10
30304;DHT22;17112;48.636;10.152;2022-10-04T07:17:02;8.70;72.10
30304;DHT22;17112;48.636;10.152;2022-10-04T07:19:36;8.80;72.00
30304;DHT22;17112;48.636;10.152;2022-10-04T07:28:03;9.10;72.10
30304;DHT22;17112;48.636;10.152;2022-10-04T07:30:55;9.10;72.10
30304;DHT22;17112;48.636;10.152;2022-10-04T07:33:25;9.20;72.00
30304;DHT22;17112;48.636;10.152;2022-10-04T07:35:59;9.30;72.00
30304;DHT22;17112;48.636;10.152;2022-10-04T07:38:30;9.40;71.70
30304;DHT22;17112;48.636;10.152;2022-10-04T07:41:22;9.50;71.60
30304;DHT22;17112;48.636;10.152;2022-10-04T07:44:02;9.60;71.70
30304;DHT22;17112;48.636;10.152;2022-10-04T07:49:36;9.80;72.10
30304;DHT22;17112;48.636;10.152;2022-10-04T08:03:03;10.40;72.10
30304;DHT22;17112;48.636;10.152;2022-10-04T08:06:15;10.50;72.10
30304;DHT22;17112;48.636;10.152;2022-10-04T08:08:29;10.70;72.00
30304;DHT22;17112;48.636;10.152;2022-10-04T08:11:14;10.80;71.60
30304;DHT22;17112;48.636;10.152;2022-10-04T08:16:48;11.00;71.60
30304;DHT22;17112;48.636;10.152;2022-10-04T08:31:33;11.50;70.90
30304;DHT22;17112;48.636;10.152;2022-10-04T08:34:23;11.50;71.20
30304;DHT22;17112;48.636;10.152;2022-10-04T08:37:07;11.60;71.20
30304;DHT22;17112;48.636;10.152;2022-10-04T08:45:46;11.90;71.60
30304;DHT22;17112;48.636;10.152;2022-10-04T08:51:24;12.20;71.40
30304;DHT22;17112;48.636;10.152;2022-10-04T09:00:42;12.50;70.80
30304;DHT22;17112;48.636;10.152;2022-10-04T09:11:44;12.80;69.70
30304;DHT22;17112;48.636;10.152;2022-10-04T09:19:41;13.00;69.80
30304;DHT22;17112;48.636;10.152;2022-10-04T09:32:18;13.40;69.30
30304;DHT22;17112;48.636;10.152;2022-10-04T09:47:42;14.30;69.60
30304;DHT22;17112;48.636;10.152;2022-10-04T09:50:40;14.50;69.10
30304;DHT22;17112;48.636;10.152;2022-10-04T10:01:24;15.00;67.30
30304;DHT22;17112;48.636;10.152;2022-10-04T10:12:44;15.70;66.00
30304;DHT22;17112;48.636;10.152;2022-10-04T10:18:56;16.00;65.30
30304;DHT22;17112;48.636;10.152;2022-10-04T10:30:11;16.60;64.80
30304;DHT22;17112;48.636;10.152;2022-10-04T10:35:28;16.80;64.60
30304;DHT22;17112;48.636;10.152;2022-10-04T11:07:23;17.80;62.20
30304;DHT22;17112;48.636;10.152;2022-10-04T11:10:19;17.90;62.30
30304;DHT22;17112;48.636;10.152;2022-10-04T11:19:05;18.20;62.10
30304;DHT22;17112;48.636;10.152;2022-10-04T11:22:40;18.30;61.90
30304;DHT22;17112;48.636;10.152;2022-10-04T11:30:25;18.80;60.80
30304;DHT22;17112;48.636;10.152;2022-10-04T11:42:04;19.10;60.20
30304;DHT22;17112;48.636;10.152;2022-10-04T11:47:24;19.30;60.50
30304;DHT22;17112;48.636;10.152;2022-10-04T11:59:18;19.70;58.40
30304;DHT22;17112;48.636;10.152;2022-10-04T12:24:53;20.20;56.90
30304;DHT22;17112;48.636;10.152;2022-10-04T12:30:55;20.30;56.70
30304;DHT22;17112;48.636;10.152;2022-10-04T12:33:54;20.40;56.70
30304;DHT22;17112;48.636;10.152;2022-10-04T12:36:57;20.40;56.40
30304;DHT22;17112;48.636;10.152;2022-10-04T12:42:35;20.50;57.00
30304;DHT22;17112;48.636;10.152;2022-10-04T12:53:26;20.50;55.70
30304;DHT22;17112;48.636;10.152;2022-10-04T13:01:33;20.60;55.70
30304;DHT22;17112;48.636;10.152;2022-10-04T13:04:28;20.70;56.60
30304;DHT22;17112;48.636;10.152;2022-10-04T13:18:46;20.80;55.30
30304;DHT22;17112;48.636;10.152;2022-10-04T13:21:38;20.80;55.90
30304;DHT22;17112;48.636;10.152;2022-10-04T13:24:39;20.80;55.60
30304;DHT22;17112;48.636;10.152;2022-10-04T13:36:22;21.20;54.50
30304;DHT22;17112;48.636;10.152;2022-10-04T13:47:35;21.90;54.70
30304;DHT22;17112;48.636;10.152;2022-10-04T13:59:36;22.70;52.90
30304;DHT22;17112;48.636;10.152;2022-10-04T14:08:32;23.00;52.20
30304;DHT22;17112;48.636;10.152;2022-10-04T14:54:51;24.50;47.60
30304;DHT22;17112;48.636;10.152;2022-10-04T14:57:41;24.70;47.00
30304;DHT22;17112;48.636;10.152;2022-10-04T15:05:40;25.00;46.90
30304;DHT22;17112;48.636;10.152;2022-10-04T15:10:58;25.20;46.30
30304;DHT22;17112;48.636;10.152;2022-10-04T15:16:45;25.40;45.20
30304;DHT22;17112;48.636;10.152;2022-10-04T15:22:11;25.60;45.70
30304;DHT22;17112;48.636;10.152;2022-10-04T15:24:50;25.70;44.60
30304;DHT22;17112;48.636;10.152;2022-10-04T15:30:00;25.90;43.90
30304;DHT22;17112;48.636;10.152;2022-10-04T15:35:26;26.20;44.50
30304;DHT22;17112;48.636;10.152;2022-10-04T15:40:56;26.40;43.20
30304;DHT22;17112;48.636;10.152;2022-10-04T15:43:32;26.50;43.00
30304;DHT22;17112;48.636;10.152;2022-10-04T16:00:13;25.10;41.50
30304;DHT22;17112;48.636;10.152;2022-10-04T16:03:11;24.80;43.10
30304;DHT22;17112;48.636;10.152;2022-10-04T16:11:53;23.30;44.10
30304;DHT22;17112;48.636;10.152;2022-10-04T16:14:36;22.80;44.90
30304;DHT22;17112;48.636;10.152;2022-10-04T16:17:39;22.40;46.00
30304;DHT22;17112;48.636;10.152;2022-10-04T16:25:56;21.30;48.30
30304;DHT22;17112;48.636;10.152;2022-10-04T16:28:36;20.90;48.80
30304;DHT22;17112;48.636;10.152;2022-10-04T16:36:51;19.80;51.20
30304;DHT22;17112;48.636;10.152;2022-10-04T16:42:27;19.10;52.70
30304;DHT22;17112;48.636;10.152;2022-10-04T16:47:53;18.50;53.90
30304;DHT22;17112;48.636;10.152;2022-10-04T16:56:14;17.80;55.60
30304;DHT22;17112;48.636;10.152;2022-10-04T16:58:59;17.60;55.80
30304;DHT22;17112;48.636;10.152;2022-10-04T17:12:22;17.00;57.00
30304;DHT22;17112;48.636;10.152;2022-10-04T17:20:43;16.50;58.50
30304;DHT22;17112;48.636;10.152;2022-10-04T17:29:20;16.10;58.50
30304;DHT22;17112;48.636;10.152;2022-10-04T17:32:17;16.00;59.80
30304;DHT22;17112;48.636;10.152;2022-10-04T17:38:02;15.70;60.50
30304;DHT22;17112;48.636;10.152;2022-10-04T17:48:24;15.30;60.20
30304;DHT22;17112;48.636;10.152;2022-10-04T17:51:13;15.30;61.40
30304;DHT22;17112;48.636;10.152;2022-10-04T17:54:14;15.20;60.30
30304;DHT22;17112;48.636;10.152;2022-10-04T17:59:43;15.10;60.60
30304;DHT22;17112;48.636;10.152;2022-10-04T18:02:20;15.00;60.70
30304;DHT22;17112;48.636;10.152;2022-10-04T18:04:52;14.90;61.20
30304;DHT22;17112;48.636;10.152;2022-10-04T18:07:36;14.90;61.10
30304;DHT22;17112;48.636;10.152;2022-10-04T18:12:56;14.80;62.00
30304;DHT22;17112;48.636;10.152;2022-10-04T18:15:27;14.70;61.70
30304;DHT22;17112;48.636;10.152;2022-10-04T18:21:16;14.60;62.00
30304;DHT22;17112;48.636;10.152;2022-10-04T18:24:15;14.60;62.10
30304;DHT22;17112;48.636;10.152;2022-10-04T18:27:06;14.50;61.90
30304;DHT22;17112;48.636;10.152;2022-10-04T18:29:44;14.40;62.00
30304;DHT22;17112;48.636;10.152;2022-10-04T18:34:54;14.30;61.20
30304;DHT22;17112;48.636;10.152;2022-10-04T18:37:34;14.20;61.50
30304;DHT22;17112;48.636;10.152;2022-10-04T18:40:25;14.20;62.00
30304;DHT22;17112;48.636;10.152;2022-10-04T18:42:57;14.10;62.30
30304;DHT22;17112;48.636;10.152;2022-10-04T18:45:31;14.00;62.10
30304;DHT22;17112;48.636;10.152;2022-10-04T18:48:00;13.90;62.00
30304;DHT22;17112;48.636;10.152;2022-10-04T18:50:36;13.90;62.10
30304;DHT22;17112;48.636;10.152;2022-10-04T18:53:18;13.80;62.60
30304;DHT22;17112;48.636;10.152;2022-10-04T18:58:23;13.70;62.30
30304;DHT22;17112;48.636;10.152;2022-10-04T19:04:25;13.60;63.50
30304;DHT22;17112;48.636;10.152;2022-10-04T19:07:17;13.50;63.10
30304;DHT22;17112;48.636;10.152;2022-10-04T19:09:57;13.50;63.10
30304;DHT22;17112;48.636;10.152;2022-10-04T19:17:40;13.30;64.10
30304;DHT22;17112;48.636;10.152;2022-10-04T19:20:21;13.30;63.20
30304;DHT22;17112;48.636;10.152;2022-10-04T19:26:06;13.20;63.60
30304;DHT22;17112;48.636;10.152;2022-10-04T19:28:34;13.20;63.40
30304;DHT22;17112;48.636;10.152;2022-10-04T19:39:33;13.00;63.20
30304;DHT22;17112;48.636;10.152;2022-10-04T19:47:51;12.80;64.10
30304;DHT22;17112;48.636;10.152;2022-10-04T19:50:21;12.70;63.50
30304;DHT22;17112;48.636;10.152;2022-10-04T19:55:47;12.60;63.70
30304;DHT22;17112;48.636;10.152;2022-10-04T20:00:57;12.50;64.40
30304;DHT22;17112;48.636;10.152;2022-10-04T20:03:24;12.50;63.80
30304;DHT22;17112;48.636;10.152;2022-10-04T20:05:52;12.40;63.80
30304;DHT22;17112;48.636;10.152;2022-10-04T20:11:18;12.40;64.80
30304;DHT22;17112;48.636;10.152;2022-10-04T20:14:41;12.30;64.90
30304;DHT22;17112;48.636;10.152;2022-10-04T20:17:02;12.30;64.10
30304;DHT22;17112;48.636;10.152;2022-10-04T20:29:59;12.00;65.10
30304;DHT22;17112;48.636;10.152;2022-10-04T20:34:56;11.90;64.30
30304;DHT22;17112;48.636;10.152;2022-10-04T20:45:47;11.80;65.80
30304;DHT22;17112;48.636;10.152;2022-10-04T20:48:25;11.70;65.30
30304;DHT22;17112;48.636;10.152;2022-10-04T20:50:53;11.70;65.60
30304;DHT22;17112;48.636;10.152;2022-10-04T20:53:25;11.70;65.10
30304;DHT22;17112;48.636;10.152;2022-10-04T20:56:08;11.70;65.70
30304;DHT22;17112;48.636;10.152;2022-10-04T20:58:35;11.60;66.20
30304;DHT22;17112;48.636;10.152;2022-10-04T21:01:23;11.60;65.30
30304;DHT22;17112;48.636;10.152;2022-10-04T21:04:28;11.50;66.10
30304;DHT22;17112;48.636;10.152;2022-10-04T21:07:05;11.50;65.90
30304;DHT22;17112;48.636;10.152;2022-10-04T21:09:32;11.50;65.70
30304;DHT22;17112;48.636;10.152;2022-10-04T21:11:59;11.50;65.30
30304;DHT22;17112;48.636;10.152;2022-10-04T21:16:59;11.40;65.50
30304;DHT22;17112;48.636;10.152;2022-10-04T21:27:28;11.30;65.70
30304;DHT22;17112;48.636;10.152;2022-10-04T21:29:55;11.50;66.40
30304;DHT22;17112;48.636;10.152;2022-10-04T21:32:22;11.20;65.70
30304;DHT22;17112;48.636;10.152;2022-10-04T21:34:48;11.20;66.00
30304;DHT22;17112;48.636;10.152;2022-10-04T21:37:15;11.20;65.90
30304;DHT22;17112;48.636;10.152;2022-10-04T21:39:42;11.10;65.80
30304;DHT22;17112;48.636;10.152;2022-10-04T21:42:10;11.30;66.10
30304;DHT22;17112;48.636;10.152;2022-10-04T21:44:36;11.10;66.10
30304;DHT22;17112;48.636;10.152;2022-10-04T21:47:02;11.10;66.20
30304;DHT22;17112;48.636;10.152;2022-10-04T21:49:28;11.00;66.10
30304;DHT22;17112;48.636;10.152;2022-10-04T21:51:53;11.00;66.10
30304;DHT22;17112;48.636;10.152;2022-10-04T21:54:19;11.00;66.20
30304;DHT22;17112;48.636;10.152;2022-10-04T21:56:46;11.00;66.50
30304;DHT22;17112;48.636;10.152;2022-10-04T21:59:11;10.90;66.60
30304;DHT22;17112;48.636;10.152;2022-10-04T22:01:37;10.90;66.70
30304;DHT22;17112;48.636;10.152;2022-10-04T22:04:03;10.90;66.60
30304;DHT22;17112;48.636;10.152;2022-10-04T22:06:29;10.90;66.60
30304;DHT22;17112;48.636;10.152;2022-10-04T22:08:55;10.90;66.60
30304;DHT22;17112;48.636;10.152;2022-10-04T22:11:21;10.80;66.70
30304;DHT22;17112;48.636;10.152;2022-10-04T22:13:46;10.80;66.80
30304;DHT22;17112;48.636;10.152;2022-10-04T22:16:13;10.80;66.90
30304;DHT22;17112;48.636;10.152;2022-10-04T22:18:39;10.80;67.00
30304;DHT22;17112;48.636;10.152;2022-10-04T22:21:05;10.80;67.00
30304;DHT22;17112;48.636;10.152;2022-10-04T22:23:38;10.80;66.90
30304;DHT22;17112;48.636;10.152;2022-10-04T22:26:21;10.70;66.80
30304;DHT22;17112;48.636;10.152;2022-10-04T22:28:52;10.70;67.00
30304;DHT22;17112;48.636;10.152;2022-10-04T22:31:27;10.70;66.50
30304;DHT22;17112;48.636;10.152;2022-10-04T22:33:53;10.70;66.40
30304;DHT22;17112;48.636;10.152;2022-10-04T22:36:25;10.60;66.30
30304;DHT22;17112;48.636;10.152;2022-10-04T22:39:05;10.60;66.50
30304;DHT22;17112;48.636;10.152;2022-10-04T22:41:37;10.60;66.70
30304;DHT22;17112;48.636;10.152;2022-10-04T22:46:39;10.50;67.00
30304;DHT22;17112;48.636;10.152;2022-10-04T22:49:16;10.50;66.70
30304;DHT22;17112;48.636;10.152;2022-10-04T22:51:46;10.40;67.00
30304;DHT22;17112;48.636;10.152;2022-10-04T22:54:15;10.40;66.70
30304;DHT22;17112;48.636;10.152;2022-10-04T22:56:41;10.40;66.90
30304;DHT22;17112;48.636;10.152;2022-10-04T22:59:09;10.40;66.90
30304;DHT22;17112;48.636;10.152;2022-10-04T23:01:35;10.40;67.10
30304;DHT22;17112;48.636;10.152;2022-10-04T23:04:01;10.30;67.10
30304;DHT22;17112;48.636;10.152;2022-10-04T23:06:28;10.30;67.20
30304;DHT22;17112;48.636;10.152;2022-10-04T23:08:53;10.20;67.10
30304;DHT22;17112;48.636;10.152;2022-10-04T23:11:19;10.20;67.20
30304;DHT22;17112;48.636;10.152;2022-10-04T23:13:45;10.20;67.20
30304;DHT22;17112;48.636;10.152;2022-10-04T23:16:20;10.20;67.20
30304;DHT22;17112;48.636;10.152;2022-10-04T23:18:46;10.20;67.50
30304;DHT22;17112;48.636;10.152;2022-10-04T23:21:23;10.10;67.10
30304;DHT22;17112;48.636;10.152;2022-10-04T23:23:50;10.10;67.60
30304;DHT22;17112;48.636;10.152;2022-10-04T23:26:37;10.10;67.20
30304;DHT22;17112;48.636;10.152;2022-10-04T23:29:23;10.10;68.00
30304;DHT22;17112;48.636;10.152;2022-10-04T23:31:49;10.00;67.80
30304;DHT22;17112;48.636;10.152;2022-10-04T23:34:18;10.00;67.20
30304;DHT22;17112;48.636;10.152;2022-10-04T23:36:46;10.00;67.40
30304;DHT22;17112;48.636;10.152;2022-10-04T23:39:21;10.00;67.40
30304;DHT22;17112;48.636;10.152;2022-10-04T23:41:47;10.00;67.50
30304;DHT22;17112;48.636;10.152;2022-10-04T23:44:14;9.90;68.20
30304;DHT22;17112;48.636;10.152;2022-10-04T23:46:40;9.90;67.70
30304;DHT22;17112;48.636;10.152;2022-10-04T23:49:14;9.90;67.80
30304;DHT22;17112;48.636;10.152;2022-10-04T23:51:42;9.90;68.00
30304;DHT22;17112;48.636;10.152;2022-10-04T23:54:14;9.80;67.60
30304;DHT22;17112;48.636;10.152;2022-10-04T23:56:41;9.80;67.80
30304;DHT22;17112;48.636;10.152;2022-10-04T23:59:23;9.80;67.50
